Home > Products > Valid Products > MTR

000
SAUS43 KUNR 012257
MTRD07
METAR KD07 012256Z AUTO 03008KT 16/M03 A3020 RMK AO1 SLP242
T01561028





000
SAUS43 KUNR 012257
MTR2WX
METAR K2WX 012256Z AUTO VRB06KT 16/M02 A3016 RMK AO1 SLP226
T01611022





000
SAUS43 KUNR 012158
MTRD07
METAR KD07 012156Z AUTO 35007KT 16/M03 A3022 RMK AO1 SLP248
T01611028





000
SAUS43 KUNR 012157
MTR2WX
METAR K2WX 012156Z AUTO VRB04KT 16/M03 A3017 RMK AO1 SLP228
T01611028





000
SAUS43 KUNR 012058
MTRD07
METAR KD07 012056Z AUTO 04008KT 010V070 16/M03 A3024 RMK AO1 SLP254
T01561028 56015





000
SAUS43 KUNR 012057
MTR2WX
METAR K2WX 012056Z AUTO 30008KT 16/M03 A3019 RMK AO1 SLP234
T01611028 56017





000
SAUS43 KUNR 012057
MTR2WX
METAR K2WX 012056Z AUTO 30008KT 16/M03 A3019 RMK AO1 SLP234
T01611028 56017





000
SAUS43 KUNR 011958
MTRD07
METAR KD07 011956Z AUTO 01006KT 14/M03 A3026 RMK AO1 SLP261
T01441028





000
SAUS43 KUNR 011957
MTR2WX
METAR K2WX 011956Z AUTO 06005KT 15/M02 A3021 RMK AO1 SLP235
T01501022





000
SAUS43 KUNR 011857
MTRD07
METAR KD07 011856Z AUTO 03013G18KT 13/M03 A3027 RMK AO1 SLP265
T01331033





000
SAUS43 KUNR 011857
MTR2WX
METAR K2WX 011856Z AUTO VRB04KT 15/M02 A3022 RMK AO1 SLP241
T01501022





000
SAUS43 KUNR 011801 COR
MTR2WX
METAR K2WX 011756Z AUTO 04008KT 350V060 14/M02 A3024 RMK AO1 SLP248
T01441022 10144 21011 58009





000
SAUS43 KUNR 011800 COR
MTR2WX
METAR K2WX 011756Z AUTO 04008KT 350V060 14/M02 A3024 RMK AO1 SLP248
T01441022 10144 21011 58009





000
SAUS43 KUNR 011759 COR
MTR2WX
METAR K2WX 011756Z AUTO 04008KT 350V060 14/M02 A3024 RMK AO1 SLP248
T01441022 10144 21011 58009





000
SAUS43 KUNR 011758 COR
MTR2WX
METAR K2WX 011756Z AUTO 04008KT 350V060 14/M02 A3024 RMK AO1 SLP248
T01441022 10144 21011 58009





000
SAUS43 KUNR 011758
MTRD07
METAR KD07 011756Z AUTO 05013KT 13/M03 A3029 RMK AO1 SLP271
T01281028 10133 20000 56010





000
SAUS43 KUNR 011658
MTR2WX
METAR K2WX 011656Z AUTO 04009G15KT 13/M03 A3026 RMK AO1 SLP255
T01281028





000
SAUS43 KUNR 011658
MTRD07
METAR KD07 011656Z AUTO 02014G19KT 350V050 12/M03 A3030 RMK AO1
SLP275 T01171033





000
SAUS43 KUNR 011558
MTR2WX
METAR K2WX 011556Z AUTO 04005KT 12/M02 A3027 RMK AO1 SLP261
T01171022





000
SAUS43 KUNR 011557
MTRD07
METAR KD07 011556Z AUTO 04012G15KT 11/M02 A3031 RMK AO1 SLP277
T01111017





000
SAUS43 KUNR 011502 COR
MTR2WX
METAR K2WX 011456Z AUTO 36005KT 11/M03 A3027 RMK AO1 SLP262
T01061028 51006





000
SAUS43 KUNR 011502 COR
MTR2WX
METAR K2WX 011456Z AUTO 36005KT 11/M03 A3027 RMK AO1 SLP262
T01061028 51006





000
SAUS43 KUNR 011500 COR
MTR2WX
METAR K2WX 011456Z AUTO 36005KT 11/M03 A3027 RMK AO1 SLP262
T01061028 51006





000
SAUS43 KUNR 011500 COR
MTR2WX
METAR K2WX 011456Z AUTO 36005KT 11/M03 A3027 RMK AO1 SLP262
T01061028 51006





000
SAUS43 KUNR 011458 COR
MTR2WX
METAR K2WX 011456Z AUTO 36005KT 11/M03 A3027 RMK AO1 SLP262
T01061028 51006





000
SAUS43 KUNR 011458 COR
MTR2WX
METAR K2WX 011456Z AUTO 36005KT 11/M03 A3027 RMK AO1 SLP262
T01061028 51006





000
SAUS43 KUNR 011457
MTRD07
METAR KD07 011456Z AUTO VRB05KT 08/M01 A3032 RMK AO1 SLP285
T00831011 51009





000
SAUS43 KUNR 011357
MTRD07
METAR KD07 011356Z AUTO 33009KT 06/M01 A3031 RMK AO1 SLP283
T00561011





000
SAUS43 KUNR 011357
MTR2WX
METAR K2WX 011356Z AUTO 31005KT 07/00 A3027 RMK AO1 SLP263 T00720000





000
SAUS43 KUNR 011357
MTRD07
METAR KD07 011356Z AUTO 33009KT 06/M01 A3031 RMK AO1 SLP283
T00561011





000
SAUS43 KUNR 011357
MTR2WX
METAR K2WX 011356Z AUTO 31005KT 07/00 A3027 RMK AO1 SLP263 T00720000





000
SAUS43 KUNR 011258
MTRD07
METAR KD07 011256Z AUTO 30006KT 02/M02 A3030 RMK AO1 SLP280
T00171022





000
SAUS43 KUNR 011258
MTRD07
METAR KD07 011256Z AUTO 30006KT 02/M02 A3030 RMK AO1 SLP280
T00171022





000
SAUS43 KUNR 011257
MTR2WX
METAR K2WX 011256Z AUTO 30005KT 02/M02 A3027 RMK AO1 SLP264
T00171022





000
SAUS43 KUNR 011257
MTR2WX
METAR K2WX 011256Z AUTO 30005KT 02/M02 A3027 RMK AO1 SLP264
T00171022





000
SAUS43 KUNR 011158
MTRD07
METAR KD07 011156Z AUTO 32007KT M01/M04 A3029 RMK AO1 SLP275
T10061044 10028 21006 52011





000
SAUS43 KUNR 011158
MTRD07
METAR KD07 011156Z AUTO 32007KT M01/M04 A3029 RMK AO1 SLP275
T10061044 10028 21006 52011





000
SAUS43 KUNR 011157
MTR2WX
METAR K2WX 011156Z AUTO 29005KT M01/M04 A3025 RMK AO1 SLP261
T10111044 10056 21017 53008





000
SAUS43 KUNR 011157
MTR2WX
METAR K2WX 011156Z AUTO 29005KT M01/M04 A3025 RMK AO1 SLP261
T10111044 10056 21017 53008





000
SAUS43 KUNR 011058
MTRD07
METAR KD07 011056Z AUTO 32006KT 00/M04 A3027 RMK AO1 SLP269
T00001039





000
SAUS43 KUNR 011057
MTR2WX
METAR K2WX 011056Z AUTO 28004KT M02/M04 A3024 RMK AO1 SLP259
T10171044





000
SAUS43 KUNR 010958
MTRD07
METAR KD07 010956Z AUTO 31005KT 01/M04 A3027 RMK AO1 SLP265
T00061039





000
SAUS43 KUNR 010957
MTR2WX
METAR K2WX 010956Z AUTO 28005KT 00/M04 A3023 RMK AO1 SLP253
T00001039





000
SAUS43 KUNR 010858
MTRD07
METAR KD07 010856Z AUTO 35007KT 01/M03 A3025 RMK AO1 SLP260
T00111033 51005





000
SAUS43 KUNR 010857
MTR2WX
METAR K2WX 010856Z AUTO 28004KT 01/M03 A3023 RMK AO1 SLP250
T00061033 51002





000
SAUS43 KUNR 010758
MTRD07
METAR KD07 010756Z AUTO 36007KT 01/M03 A3025 RMK AO1 SLP260
T00111028





000
SAUS43 KUNR 010757
MTR2WX
METAR K2WX 010756Z AUTO 36006KT 04/M03 A3022 RMK AO1 SLP246
T00441033





000
SAUS43 KUNR 010658
MTRD07
METAR KD07 010656Z AUTO 01007KT 02/M03 A3025 RMK AO1 SLP260
T00171028 401330017





000
SAUS43 KUNR 010658
MTRD07
METAR KD07 010656Z AUTO 01007KT 02/M03 A3025 RMK AO1 SLP260
T00171028 401330017





000
SAUS43 KUNR 010657
MTR2WX
METAR K2WX 010656Z AUTO 35005KT 05/M03 A3022 RMK AO1 SLP246
T00501033 401440033





000
SAUS43 KUNR 010657
MTR2WX
METAR K2WX 010656Z AUTO 35005KT 05/M03 A3022 RMK AO1 SLP246
T00501033 401440033





000
SAUS43 KUNR 010557
MTRD07
METAR KD07 010556Z AUTO 01005KT 03/M02 A3024 RMK AO1 SLP255
T00281022 10122 20022 51013





000
SAUS43 KUNR 010557
MTR2WX
METAR K2WX 010556Z AUTO 02007KT 05/M03 A3022 RMK AO1 SLP244
T00501028 10133 20044 51012





000
SAUS43 KUNR 010457
MTR2WX
METAR K2WX 010456Z AUTO 02008KT 05/M03 A3021 RMK AO1 SLP243
T00501028





000
SAUS43 KUNR 010457
MTRD07
METAR KD07 010456Z AUTO 01004KT 04/M02 A3023 RMK AO1 SLP252
T00391022





000
SAUS43 KUNR 010457
MTR2WX
METAR K2WX 010456Z AUTO 02008KT 05/M03 A3021 RMK AO1 SLP243
T00501028





000
SAUS43 KUNR 010457
MTRD07
METAR KD07 010456Z AUTO 01004KT 04/M02 A3023 RMK AO1 SLP252
T00391022





000
SAUS43 KUNR 010357
MTR2WX
METAR K2WX 010356Z AUTO 02008KT 05/M02 A3021 RMK AO1 SLP242
T00501017





000
SAUS43 KUNR 010357
MTRD07
METAR KD07 010356Z AUTO 02007KT 04/M02 A3022 RMK AO1 SLP250
T00391017





000
SAUS43 KUNR 010302 COR
MTR2WX
METAR K2WX 010256Z AUTO 03009KT 06/M02 A3018 RMK AO1 SLP235
T00561017 53018





000
SAUS43 KUNR 010300 COR
MTR2WX
METAR K2WX 010256Z AUTO 03009KT 06/M02 A3018 RMK AO1 SLP235
T00561017 53018





000
SAUS43 KUNR 010258 COR
MTR2WX
METAR K2WX 010256Z AUTO 03009KT 06/M02 A3018 RMK AO1 SLP235
T00561017 53018





000
SAUS43 KUNR 010257
MTR2WX
METAR K2WX 010256Z AUTO 03009KT 06/M02 A3018 RMK AO1 SLP235
T00561017 53018





000
SAUS43 KUNR 010257
MTRD07
METAR KD07 010256Z AUTO 02008KT 04/M02 A3020 RMK AO1 SLP243
T00441017 53022





000
SAUS43 KUNR 010257
MTR2WX
METAR K2WX 010256Z AUTO 03009KT 06/M02 A3018 RMK AO1 SLP235
T00561017 53018





000
SAUS43 KUNR 010157
MTR2WX
METAR K2WX 010156Z AUTO 05009KT 08/M01 A3016 RMK AO1 SLP227
T00831011





000
SAUS43 KUNR 010157
MTR2WX
METAR K2WX 010156Z AUTO 05009KT 08/M01 A3016 RMK AO1 SLP227
T00831011





000
SAUS43 KUNR 010157
MTRD07
METAR KD07 010156Z AUTO 05010KT 07/M01 A3017 RMK AO1 SLP233
T00721011





000
SAUS43 KUNR 010058
MTRD07
METAR KD07 010056Z AUTO 06014KT 11/M02 A3015 RMK AO1 PK WND
05026/0009 SLP223 T01061017





000
SAUS43 KUNR 010058
MTRD07
METAR KD07 010056Z AUTO 06014KT 11/M02 A3015 RMK AO1 PK WND
05026/0009 SLP223 T01061017





000
SAUS43 KUNR 010057
MTR2WX
METAR K2WX 010056Z AUTO 04012KT 11/M01 A3014 RMK AO1 SLP218
T01111011





000
SAUS43 KUNR 010057
MTR2WX
METAR K2WX 010056Z AUTO 04012KT 11/M01 A3014 RMK AO1 SLP218
T01111011





000
SAUS43 KUNR 302357
MTRD07
METAR KD07 302356Z AUTO 05021G29KT 12/M02 A3013 RMK AO1 PK WND
07029/2349 SLP215 T01221022 10133 20106 53013





000
SAUS43 KUNR 302357
MTR2WX
METAR K2WX 302356Z AUTO 05020G25KT 13/M02 A3013 RMK AO1 PK WND
04029/2337 SLP209 T01331017 10144 20111 53008





000
SAUS43 KUNR 302257
MTRD07
METAR KD07 302256Z AUTO 05023G28KT 13/M03 A3011 RMK AO1 PK WND
04031/2234 SLP209 T01331028





000
SAUS43 KUNR 302257
MTR2WX
METAR K2WX 302256Z AUTO 05016G29KT 12/M02 A3011 RMK AO1 PK WND
04029/2249 SLP207 T01171017





000
SAUS43 KUNR 302157
MTR2WX
METAR K2WX 302156Z AUTO 03016G25KT 13/M01 A3010 RMK AO1 SLP200
T01281006





000
SAUS43 KUNR 302157
MTRD07
METAR KD07 302156Z AUTO 05020G29KT 13/M02 A3009 RMK AO1 PK WND
03033/2101 SLP203 T01331017





000
SAUS43 KUNR 302058
MTR2WX
METAR K2WX 302056Z AUTO 07015G23KT 12/M01 A3010 RMK AO1 SLP203
T01221011 53003





000
SAUS43 KUNR 302057
MTRD07
METAR KD07 302056Z AUTO 05020G31KT 13/M01 A3009 RMK AO1 PK WND
05033/2026 SLP199 T01331011 58005





000
SAUS43 KUNR 301958
MTRD07
METAR KD07 301956Z AUTO 03020G29KT 12/M01 A3010 RMK AO1 PK WND
04030/1907 SLP204 T01171006





000
SAUS43 KUNR 301958
MTRD07
METAR KD07 301956Z AUTO 03020G29KT 12/M01 A3010 RMK AO1 PK WND
04030/1907 SLP204 T01171006





000
SAUS43 KUNR 301957
MTR2WX
METAR K2WX 301956Z AUTO 09015G22KT 12/00 A3009 RMK AO1 PK WND
07026/1923 SLP199 T01220000





000
SAUS43 KUNR 301957
MTR2WX
METAR K2WX 301956Z AUTO 09015G22KT 12/00 A3009 RMK AO1 PK WND
07026/1923 SLP199 T01220000





000
SAUS43 KUNR 301858
MTRD07
METAR KD07 301856Z AUTO 05020KT 12/01 A3010 RMK AO1 PK WND
05030/1841 SLP204 T01170006





000
SAUS43 KUNR 301857
MTR2WX
METAR K2WX 301856Z AUTO 06017KT 11/00 A3009 RMK AO1 SLP201 T01110000





000
SAUS43 KUNR 301757
MTR2WX
METAR K2WX 301756Z AUTO 08017G24KT 12/01 A3009 RMK AO1 SLP199
T01170006 10117 20039 50006





000
SAUS43 KUNR 301757
MTRD07
METAR KD07 301756Z AUTO 06020G27KT 11/00 A3010 RMK AO1 PK WND
07027/1747 SLP207 T01110000 10117 20039 50001





000
SAUS43 KUNR 301757
MTR2WX
METAR K2WX 301756Z AUTO 08017G24KT 12/01 A3009 RMK AO1 SLP199
T01170006 10117 20039 50006





000
SAUS43 KUNR 301757
MTRD07
METAR KD07 301756Z AUTO 06020G27KT 11/00 A3010 RMK AO1 PK WND
07027/1747 SLP207 T01110000 10117 20039 50001





000
SAUS43 KUNR 301657
MTRD07
METAR KD07 301656Z AUTO 06015KT 11/02 A3011 RMK AO1 SLP211 T01060022





000
SAUS43 KUNR 301657
MTR2WX
METAR K2WX 301656Z AUTO 04013KT 10/02 A3009 RMK AO1 SLP203 T01000017





000
SAUS43 KUNR 301657
MTR2WX
METAR K2WX 301656Z AUTO 04013KT 10/02 A3009 RMK AO1 SLP203 T01000017





000
SAUS43 KUNR 301657
MTRD07
METAR KD07 301656Z AUTO 06015KT 11/02 A3011 RMK AO1 SLP211 T01060022





000
SAUS43 KUNR 301558
MTR2WX
METAR K2WX 301556Z AUTO 04016KT 09/02 A3008 RMK AO1 SLP199 T00890022





000
SAUS43 KUNR 301557
MTRD07
METAR KD07 301556Z AUTO 05016KT 09/03 A3011 RMK AO1 SLP209 T00940028





000
SAUS43 KUNR 301458
MTR2WX
METAR K2WX 301456Z AUTO 04014KT 08/02 A3007 RMK AO1 SLP197 T00780022
53012





000
SAUS43 KUNR 301457
MTRD07
METAR KD07 301456Z AUTO 03015KT 09/04 A3010 RMK AO1 SLP206 T00890039
51011





000
SAUS43 KUNR 301357
MTRD07
METAR KD07 301356Z AUTO 02009KT 07/03 A3009 RMK AO1 SLP207 T00670033





000
SAUS43 KUNR 301357
MTR2WX
METAR K2WX 301356Z AUTO 03011KT 06/02 A3006 RMK AO1 SLP191 T00560017





000
SAUS43 KUNR 301257
MTRD07
METAR KD07 301256Z AUTO 02009KT 04/02 A3008 RMK AO1 SLP202 T00440022





000
SAUS43 KUNR 301257
MTR2WX
METAR K2WX 301256Z AUTO 03008KT 04/01 A3005 RMK AO1 SLP187 T00440011





000
SAUS43 KUNR 301201 COR
MTR2WX
METAR K2WX 301156Z AUTO 03009KT 05/02 A3003 RMK AO1 SLP181 T00500017
10050 20039 53006





000
SAUS43 KUNR 301200 COR
MTR2WX
METAR K2WX 301156Z AUTO 03009KT 05/02 A3003 RMK AO1 SLP181 T00500017
10050 20039 53006





000
SAUS43 KUNR 301200 COR
MTR2WX
METAR K2WX 301156Z AUTO 03009KT 05/02 A3003 RMK AO1 SLP181 T00500017
10050 20039 53006





000
SAUS43 KUNR 301158 COR
MTR2WX
METAR K2WX 301156Z AUTO 03009KT 05/02 A3003 RMK AO1 SLP181 T00500017
10050 20039 53006





000
SAUS43 KUNR 301157
MTR2WX
METAR K2WX 301156Z AUTO 03009KT 05/02 A3003 RMK AO1 SLP181 T00500017
10050 20039 53006





000
SAUS43 KUNR 301157
MTRD07
METAR KD07 301156Z AUTO 02007KT 04/02 A3007 RMK AO1 SLP197 T00390022
10056 20022 53002





000
SAUS43 KUNR 301057
MTRD07
METAR KD07 301056Z AUTO 35006KT 02/01 A3006 RMK AO1 SLP197 T00220006





000
SAUS43 KUNR 301057
MTR2WX
METAR K2WX 301056Z AUTO 04006KT 04/01 A3003 RMK AO1 SLP178 T00440011





000
SAUS43 KUNR 300957
MTRD07
METAR KD07 300956Z AUTO 35007KT 03/02 A3006 RMK AO1 SLP192 T00330017





000
SAUS43 KUNR 300957
MTR2WX
METAR K2WX 300956Z AUTO 02007KT 05/01 A3002 RMK AO1 SLP177 T00500011





000
SAUS43 KUNR 300858
MTRD07
METAR KD07 300856Z AUTO 01004KT 04/02 A3006 RMK AO1 SLP193 T00440022
55001





000
SAUS43 KUNR 300857
MTR2WX
METAR K2WX 300856Z AUTO 35005KT 04/01 A3001 RMK AO1 SLP175 T00440011
53002





000
SAUS43 KUNR 300758
MTRD07
METAR KD07 300756Z AUTO 01005KT 05/02 A3006 RMK AO1 SLP191 T00500022





000
SAUS43 KUNR 300757
MTR2WX
METAR K2WX 300756Z AUTO 02005KT 05/01 A3001 RMK AO1 SLP175 T00500011





000
SAUS43 KUNR 300658
MTR2WX
METAR K2WX 300656Z AUTO 03006KT 04/01 A3001 RMK AO1 SLP174 T00440006
401060028





000
SAUS43 KUNR 300658
MTRD07
METAR KD07 300656Z AUTO 10003KT 05/02 A3007 RMK AO1 SLP194 T00500022
401220017





000
SAUS43 KUNR 300658
MTRD07
METAR KD07 300656Z AUTO 10003KT 05/02 A3007 RMK AO1 SLP194 T00500022
401220017





000
SAUS43 KUNR 300602 COR
MTR2WX
METAR K2WX 300556Z AUTO 04004KT 04/01 A3001 RMK AO1 SLP174 T00440006
10106 20039 50000





000
SAUS43 KUNR 300601 COR
MTR2WX
METAR K2WX 300556Z AUTO 04004KT 04/01 A3001 RMK AO1 SLP174 T00440006
10106 20039 50000





000
SAUS43 KUNR 300558 COR
MTR2WX
METAR K2WX 300556Z AUTO 04004KT 04/01 A3001 RMK AO1 SLP174 T00440006
10106 20039 50000





000
SAUS43 KUNR 300558
MTRD07
METAR KD07 300556Z AUTO 08004KT 04/02 A3006 RMK AO1 SLP195 T00440017
10094 20044 53001





000
SAUS43 KUNR 300457
MTRD07
METAR KD07 300456Z AUTO 00000KT 05/02 A3006 RMK AO1 SLP195 T00500017





000
SAUS43 KUNR 300457
MTR2WX
METAR K2WX 300456Z AUTO 08003KT 04/01 A3001 RMK AO1 SLP175 T00440006





000
SAUS43 KUNR 300402 COR
MTR2WX
METAR K2WX 300356Z AUTO 15006KT 05/01 A3002 RMK AO1 SLP180 T00500006





000
SAUS43 KUNR 300400 COR
MTR2WX
METAR K2WX 300356Z AUTO 15006KT 05/01 A3002 RMK AO1 SLP180 T00500006





000
SAUS43 KUNR 300358 COR
MTR2WX
METAR K2WX 300356Z AUTO 15006KT 05/01 A3002 RMK AO1 SLP180 T00500006





000
SAUS43 KUNR 300358
MTRD07
METAR KD07 300356Z AUTO 12005KT 06/02 A3007 RMK AO1 SLP197 T00610017





000
SAUS43 KUNR 300259 COR
MTR2WX
METAR K2WX 300256Z AUTO 15008KT 06/01 A3001 RMK AO1 SLP177 T00560011
53006





000
SAUS43 KUNR 300258
MTRD07
METAR KD07 300256Z AUTO 12005KT 07/02 A3006 RMK AO1 SLP198 T00720017
53005





000
SAUS43 KUNR 300158
MTR2WX
METAR K2WX 300156Z AUTO 15010KT 08/01 A2999 RMK AO1 SLP171 T00780011





000
SAUS43 KUNR 300158
MTR2WX
METAR K2WX 300156Z AUTO 15010KT 08/01 A2999 RMK AO1 SLP171 T00780011





000
SAUS43 KUNR 300157
MTRD07
METAR KD07 300156Z AUTO 12005KT 07/02 A3006 RMK AO1 SLP198 T00670022





000
SAUS43 KUNR 300058
MTRD07
METAR KD07 300056Z AUTO 12008KT 09/02 A3005 RMK AO1 SLP193 T00890017





000
SAUS43 KUNR 300058
MTR2WX
METAR K2WX 300056Z AUTO 10005KT 10/01 A2998 RMK AO1 SLP164 T01000006





000
SAUS43 KUNR 300058
MTR2WX
METAR K2WX 300056Z AUTO 10005KT 10/01 A2998 RMK AO1 SLP164 T01000006





000
SAUS43 KUNR 300058
MTRD07
METAR KD07 300056Z AUTO 12008KT 09/02 A3005 RMK AO1 SLP193 T00890017





000
SAUS43 KUNR 292358
MTR2WX
METAR K2WX 292356Z AUTO 11008KT 11/00 A2999 RMK AO1 SLP167 T01060000
10106 20089 56015





000
SAUS43 KUNR 292357
MTRD07
METAR KD07 292356Z AUTO 13013KT 09/02 A3005 RMK AO1 SLP191 T00940017
10122 20094 56009





000
SAUS43 KUNR 292357
MTRD07
METAR KD07 292356Z AUTO 13013KT 09/02 A3005 RMK AO1 SLP191 T00940017
10122 20094 56009





000
SAUS43 KUNR 292258
MTR2WX
METAR K2WX 292256Z AUTO 10008KT 11/00 A2999 RMK AO1 SLP170 T01060000





000
SAUS43 KUNR 292257
MTRD07
METAR KD07 292256Z AUTO 12011KT 10/01 A3005 RMK AO1 SLP194 T01000006





000
SAUS43 KUNR 292158
MTR2WX
METAR K2WX 292156Z AUTO 13011KT 09/01 A3001 RMK AO1 SLP176 T00940006





000
SAUS43 KUNR 292158
MTR2WX
METAR K2WX 292156Z AUTO 13011KT 09/01 A3001 RMK AO1 SLP176 T00940006





000
SAUS43 KUNR 292157
MTRD07
METAR KD07 292156Z AUTO 10009KT 11/01 A3007 RMK AO1 SLP197 T01060006





000
SAUS43 KUNR 292157
MTRD07
METAR KD07 292156Z AUTO 10009KT 11/01 A3007 RMK AO1 SLP197 T01060006





000
SAUS43 KUNR 292058
MTRD07
METAR KD07 292056Z AUTO 10011KT 11/01 A3008 RMK AO1 SLP201 T01060006
56008





000
SAUS43 KUNR 292058
MTR2WX
METAR K2WX 292056Z AUTO 11012KT 09/01 A3003 RMK AO1 SLP183 T00940006
55001





000
SAUS43 KUNR 291957
MTRD07
METAR KD07 291956Z AUTO 08012KT 11/01 A3009 RMK AO1 SLP204 T01060011





000
SAUS43 KUNR 291957
MTR2WX
METAR K2WX 291956Z AUTO 09009KT 09/00 A3002 RMK AO1 SLP181 T00940000





000
SAUS43 KUNR 291858
MTR2WX
METAR K2WX 291856Z AUTO 11015KT 09/M01 A3002 RMK AO1 SLP179
T00891006





000
SAUS43 KUNR 291858
MTRD07
METAR KD07 291856Z AUTO 09008KT 11/01 A3007 RMK AO1 SLP199 T01110011





000
SAUS43 KUNR 291758
MTR2WX
METAR K2WX 291756Z AUTO 11015KT 09/M01 A3003 RMK AO1 SLP186
T00891011 10094 20028 56005





000
SAUS43 KUNR 291758
MTR2WX
METAR K2WX 291756Z AUTO 11015KT 09/M01 A3003 RMK AO1 SLP186
T00891011 10094 20028 56005





000
SAUS43 KUNR 291757
MTRD07
METAR KD07 291756Z AUTO 09010KT 10/02 A3010 RMK AO1 SLP210 T01000017
10100 20017 56003





000
SAUS43 KUNR 291658
MTR2WX
METAR K2WX 291656Z AUTO 12010KT 08/01 A3004 RMK AO1 SLP186 T00830011





000
SAUS43 KUNR 291657
MTRD07
METAR KD07 291656Z AUTO 07008KT 08/02 A3011 RMK AO1 SLP214 T00830017





000
SAUS43 KUNR 291558
MTR2WX
METAR K2WX 291556Z AUTO 07009KT 07/02 A3002 RMK AO1 SLP184 T00670017





000
SAUS43 KUNR 291557
MTRD07
METAR KD07 291556Z AUTO 09007KT 07/02 A3010 RMK AO1 SLP211 T00720017





000
SAUS43 KUNR 291500 COR
MTR2WX
METAR K2WX 291456Z AUTO 00000KT 05/02 A3005 RMK AO1 SLP195 T00500017
50003





000
SAUS43 KUNR 291500 COR
MTR2WX
METAR K2WX 291456Z AUTO 00000KT 05/02 A3005 RMK AO1 SLP195 T00500017
50003





000
SAUS43 KUNR 291459 COR
MTR2WX
METAR K2WX 291456Z AUTO 00000KT 05/02 A3005 RMK AO1 SLP195 T00500017
50003





000
SAUS43 KUNR 291459 COR
MTR2WX
METAR K2WX 291456Z AUTO 00000KT 05/02 A3005 RMK AO1 SLP195 T00500017
50003





000
SAUS43 KUNR 291458
MTR2WX
METAR K2WX 291456Z AUTO 00000KT 05/02 A3005 RMK AO1 SLP195 T00500017
50003





000
SAUS43 KUNR 291457
MTRD07
METAR KD07 291456Z AUTO 04007KT 04/01 A3011 RMK AO1 SLP220 T00390011
58005





000
SAUS43 KUNR 291457
MTRD07
METAR KD07 291456Z AUTO 04007KT 04/01 A3011 RMK AO1 SLP220 T00390011
58005





000
SAUS43 KUNR 291358
MTR2WX
METAR K2WX 291356Z AUTO 15005KT 03/02 A3007 RMK AO1 SLP205 T00330017





000
SAUS43 KUNR 291357
MTRD07
METAR KD07 291356Z AUTO 06003KT 03/01 A3014 RMK AO1 SLP233 T00280006





000
SAUS43 KUNR 291258
MTR2WX
METAR K2WX 291256Z AUTO 10003KT 03/02 A3005 RMK AO1 SLP198 T00280017





000
SAUS43 KUNR 291258
MTRD07
METAR KD07 291256Z AUTO 06005KT 02/00 A3014 RMK AO1 SLP231 T00220000





000
SAUS43 KUNR 291158
MTR2WX
METAR K2WX 291156Z AUTO 09003KT 03/01 A3004 RMK AO1 SLP194 70002
T00280011 10039 20028 56003





000
SAUS43 KUNR 291158
MTRD07
METAR KD07 291156Z AUTO 00000KT 02/M01 A3013 RMK AO1 SLP227
T00221006 10022 20017 53004





000
SAUS43 KUNR 291158
MTR2WX
METAR K2WX 291156Z AUTO 09003KT 03/01 A3004 RMK AO1 SLP194 70002
T00280011 10039 20028 56003





000
SAUS43 KUNR 291158
MTRD07
METAR KD07 291156Z AUTO 00000KT 02/M01 A3013 RMK AO1 SLP227
T00221006 10022 20017 53004





000
SAUS43 KUNR 291058
MTR2WX
METAR K2WX 291056Z AUTO 06003KT 03/01 A3004 RMK AO1 SLP195 T00280011





000
SAUS43 KUNR 291058
MTRD07
METAR KD07 291056Z AUTO 02003KT 02/M01 A3011 RMK AO1 SLP222
T00171006





000
SAUS43 KUNR 290958
MTR2WX
METAR K2WX 290956Z AUTO 35003KT 03/01 A3005 RMK AO1 SLP195 T00330006





000
SAUS43 KUNR 290958
MTR2WX
METAR K2WX 290956Z AUTO 35003KT 03/01 A3005 RMK AO1 SLP195 T00330006





000
SAUS43 KUNR 290957
MTRD07
METAR KD07 290956Z AUTO 01003KT 02/M01 A3012 RMK AO1 SLP224
T00221006





000
SAUS43 KUNR 290858
MTRD07
METAR KD07 290856Z AUTO 30007KT 02/M01 A3011 RMK AO1 SLP222
T00221006 58005





000
SAUS43 KUNR 290858
MTR2WX
METAR K2WX 290856Z AUTO 00000KT 03/02 A3005 RMK AO1 SLP198 T00330017
58005





000
SAUS43 KUNR 290758
MTRD07
METAR KD07 290756Z AUTO 30007KT 02/M01 A3013 RMK AO1 SLP227
T00221011





000
SAUS43 KUNR 290758
MTRD07
METAR KD07 290756Z AUTO 30007KT 02/M01 A3013 RMK AO1 SLP227
T00221011





000
SAUS43 KUNR 290757
MTR2WX
METAR K2WX 290756Z AUTO 21004KT 03/01 A3006 RMK AO1 SLP204 T00280011





000
SAUS43 KUNR 290757
MTR2WX
METAR K2WX 290756Z AUTO 21004KT 03/01 A3006 RMK AO1 SLP204 T00280011





000
SAUS43 KUNR 290658
MTRD07
METAR KD07 290656Z AUTO 30008KT 02/M01 A3013 RMK AO1 SLP229
T00221011 400330000





000
SAUS43 KUNR 290657
MTR2WX
METAR K2WX 290656Z AUTO 35003KT 03/00 A3006 RMK AO1 SLP201 T00330000
400440011





000
SAUS43 KUNR 290558
MTR2WX
METAR K2WX 290556Z AUTO 32004KT 03/01 A3007 RMK AO1 SLP205 T00330006
10044 20033 58001





000
SAUS43 KUNR 290557
MTRD07
METAR KD07 290556Z AUTO 30007KT 02/M01 A3013 RMK AO1 SLP229
T00221006 10028 20017 50004





000
SAUS43 KUNR 290557
MTRD07
METAR KD07 290556Z AUTO 30007KT 02/M01 A3013 RMK AO1 SLP229
T00221006 10028 20017 50004





000
SAUS43 KUNR 290459 COR
MTR2WX
METAR K2WX 290456Z AUTO 31004KT 03/01 A3008 RMK AO1 SLP208 T00330011





000
SAUS43 KUNR 290458 COR
MTR2WX
METAR K2WX 290456Z AUTO 31004KT 03/01 A3008 RMK AO1 SLP208 T00330011





000
SAUS43 KUNR 290457
MTRD07
METAR KD07 290456Z AUTO 26004KT 02/M01 A3013 RMK AO1 SLP230
T00221011





000
SAUS43 KUNR 290402 COR
MTR2WX
METAR K2WX 290356Z AUTO 28005KT 03/01 A3007 RMK AO1 SLP207 T00330011





000
SAUS43 KUNR 290402 COR
MTR2WX
METAR K2WX 290356Z AUTO 28005KT 03/01 A3007 RMK AO1 SLP207 T00330011





000
SAUS43 KUNR 290400 COR
MTR2WX
METAR K2WX 290356Z AUTO 28005KT 03/01 A3007 RMK AO1 SLP207 T00330011





000
SAUS43 KUNR 290358 COR
MTR2WX
METAR K2WX 290356Z AUTO 28005KT 03/01 A3007 RMK AO1 SLP207 T00330011





000
SAUS43 KUNR 290357
MTR2WX
METAR K2WX 290356Z AUTO 28005KT 03/01 A3007 RMK AO1 SLP207 T00330011





000
SAUS43 KUNR 290357
MTR2WX
METAR K2WX 290356Z AUTO 28005KT 03/01 A3007 RMK AO1 SLP207 T00330011





000
SAUS43 KUNR 290357
MTRD07
METAR KD07 290356Z AUTO 28005KT 02/M01 A3013 RMK AO1 SLP232
T00221006





000
SAUS43 KUNR 290302 COR
MTR2WX
METAR K2WX 290256Z AUTO 24004KT 03/01 A3007 RMK AO1 SLP207 T00330011
53006





000
SAUS43 KUNR 290300 COR
MTR2WX
METAR K2WX 290256Z AUTO 24004KT 03/01 A3007 RMK AO1 SLP207 T00330011
53006





000
SAUS43 KUNR 290258 COR
MTR2WX
METAR K2WX 290256Z AUTO 24004KT 03/01 A3007 RMK AO1 SLP207 T00330011
53006





000
SAUS43 KUNR 290257
MTRD07
METAR KD07 290256Z AUTO 30009KT 02/M01 A3012 RMK AO1 SLP227
T00221011 53008





000
SAUS43 KUNR 290157
MTR2WX
METAR K2WX 290156Z AUTO 24004KT 03/01 A3006 RMK AO1 SLP203 T00330011





000
SAUS43 KUNR 290157
MTRD07
METAR KD07 290156Z AUTO 29005KT 02/M01 A3011 RMK AO1 SLP223
T00171011





000
SAUS43 KUNR 290058
MTRD07
METAR KD07 290056Z AUTO 29005KT 02/M01 A3010 RMK AO1 SLP220
T00221011





000
SAUS43 KUNR 290057
MTR2WX
METAR K2WX 290056Z AUTO 21004KT 04/01 A3006 RMK AO1 SLP201 T00390011





000
SAUS43 KUNR 282358
MTR2WX
METAR K2WX 282356Z AUTO 11004KT 04/01 A3005 RMK AO1 SLP200 60001
T00390011 10039 20022 53003





000
SAUS43 KUNR 282357
MTRD07
METAR KD07 282356Z AUTO 27005KT 03/M02 A3009 RMK AO1 SLP218
T00281017 10033 20022 53001





    US Dept of Commerce
    National Oceanic and Atmospheric Administration
    National Weather Service
    1325 East West Highway
    Silver Spring, MD 20910
    Page Author: NWS Internet Services Team
Disclaimer
Information Quality
Credits
Glossary
Privacy Policy
Freedom of Information Act (FOIA)
About Us
Career Opportunities